sensor_id;sensor_type;location;lat;lon;timestamp;P1;durP1;ratioP1;P2;durP2;ratioP2
757;SDS011;363;48.764;9.172;2023-02-28T00:00:32;3.20;;;2.72;;
757;SDS011;363;48.764;9.172;2023-02-28T00:02:58;3.65;;;2.80;;
757;SDS011;363;48.764;9.172;2023-02-28T00:05:25;3.60;;;2.80;;
757;SDS011;363;48.764;9.172;2023-02-28T00:07:51;3.65;;;2.70;;
757;SDS011;363;48.764;9.172;2023-02-28T00:10:19;4.72;;;3.20;;
757;SDS011;363;48.764;9.172;2023-02-28T00:12:48;2.45;;;2.25;;
757;SDS011;363;48.764;9.172;2023-02-28T00:15:14;4.70;;;3.17;;
757;SDS011;363;48.764;9.172;2023-02-28T00:17:40;4.03;;;3.40;;
757;SDS011;363;48.764;9.172;2023-02-28T00:20:06;3.30;;;2.50;;
757;SDS011;363;48.764;9.172;2023-02-28T00:22:47;3.30;;;2.90;;
757;SDS011;363;48.764;9.172;2023-02-28T00:25:16;3.28;;;3.08;;
757;SDS011;363;48.764;9.172;2023-02-28T00:27:44;2.70;;;2.45;;
757;SDS011;363;48.764;9.172;2023-02-28T00:30:11;3.10;;;2.80;;
757;SDS011;363;48.764;9.172;2023-02-28T00:32:39;3.20;;;2.90;;
757;SDS011;363;48.764;9.172;2023-02-28T00:35:04;4.03;;;2.90;;
757;SDS011;363;48.764;9.172;2023-02-28T00:37:31;2.35;;;2.15;;
757;SDS011;363;48.764;9.172;2023-02-28T00:39:57;6.83;;;2.70;;
757;SDS011;363;48.764;9.172;2023-02-28T00:42:22;2.90;;;2.70;;
757;SDS011;363;48.764;9.172;2023-02-28T00:44:49;3.03;;;2.72;;
757;SDS011;363;48.764;9.172;2023-02-28T00:47:15;3.47;;;2.67;;
757;SDS011;363;48.764;9.172;2023-02-28T00:49:41;2.88;;;2.47;;
757;SDS011;363;48.764;9.172;2023-02-28T00:52:06;2.60;;;2.40;;
757;SDS011;363;48.764;9.172;2023-02-28T00:54:32;2.93;;;2.73;;
757;SDS011;363;48.764;9.172;2023-02-28T00:56:58;3.10;;;2.83;;
757;SDS011;363;48.764;9.172;2023-02-28T00:59:24;3.13;;;2.83;;
757;SDS011;363;48.764;9.172;2023-02-28T01:01:50;5.10;;;3.10;;
757;SDS011;363;48.764;9.172;2023-02-28T01:04:15;3.80;;;2.80;;
757;SDS011;363;48.764;9.172;2023-02-28T01:06:41;4.23;;;3.43;;
757;SDS011;363;48.764;9.172;2023-02-28T01:09:07;4.57;;;2.97;;
757;SDS011;363;48.764;9.172;2023-02-28T01:11:34;4.47;;;2.85;;
757;SDS011;363;48.764;9.172;2023-02-28T01:14:00;3.03;;;2.72;;
757;SDS011;363;48.764;9.172;2023-02-28T01:16:26;3.28;;;3.00;;
757;SDS011;363;48.764;9.172;2023-02-28T01:18:52;3.67;;;3.13;;
757;SDS011;363;48.764;9.172;2023-02-28T01:21:18;3.30;;;2.70;;
757;SDS011;363;48.764;9.172;2023-02-28T01:23:45;3.10;;;2.80;;
757;SDS011;363;48.764;9.172;2023-02-28T01:26:21;3.45;;;2.90;;
757;SDS011;363;48.764;9.172;2023-02-28T01:28:48;2.80;;;2.60;;
757;SDS011;363;48.764;9.172;2023-02-28T01:31:14;3.40;;;2.90;;
757;SDS011;363;48.764;9.172;2023-02-28T01:33:40;3.40;;;2.78;;
757;SDS011;363;48.764;9.172;2023-02-28T01:36:08;3.67;;;2.50;;
757;SDS011;363;48.764;9.172;2023-02-28T01:38:39;5.00;;;3.00;;
757;SDS011;363;48.764;9.172;2023-02-28T01:41:05;3.95;;;2.65;;
757;SDS011;363;48.764;9.172;2023-02-28T01:43:35;4.85;;;3.13;;
757;SDS011;363;48.764;9.172;2023-02-28T01:46:19;3.10;;;2.80;;
757;SDS011;363;48.764;9.172;2023-02-28T01:48:59;6.50;;;3.63;;
757;SDS011;363;48.764;9.172;2023-02-28T01:54:16;3.97;;;3.55;;
757;SDS011;363;48.764;9.172;2023-02-28T01:56:59;4.07;;;3.17;;
757;SDS011;363;48.764;9.172;2023-02-28T01:59:30;3.83;;;3.42;;
757;SDS011;363;48.764;9.172;2023-02-28T02:01:57;3.70;;;3.15;;
757;SDS011;363;48.764;9.172;2023-02-28T02:04:23;6.20;;;3.80;;
757;SDS011;363;48.764;9.172;2023-02-28T02:06:53;4.25;;;3.65;;
757;SDS011;363;48.764;9.172;2023-02-28T02:09:19;3.80;;;3.40;;
757;SDS011;363;48.764;9.172;2023-02-28T02:11:45;4.53;;;3.20;;
757;SDS011;363;48.764;9.172;2023-02-28T02:17:08;5.90;;;3.30;;
757;SDS011;363;48.764;9.172;2023-02-28T02:22:59;4.38;;;3.33;;
757;SDS011;363;48.764;9.172;2023-02-28T02:38:52;3.80;;;3.50;;
757;SDS011;363;48.764;9.172;2023-02-28T02:46:39;6.47;;;4.00;;
757;SDS011;363;48.764;9.172;2023-02-28T02:49:09;4.97;;;3.17;;
757;SDS011;363;48.764;9.172;2023-02-28T02:51:41;4.40;;;4.00;;
757;SDS011;363;48.764;9.172;2023-02-28T02:54:08;4.40;;;4.00;;
757;SDS011;363;48.764;9.172;2023-02-28T02:56:40;5.28;;;3.75;;
757;SDS011;363;48.764;9.172;2023-02-28T02:59:09;4.90;;;4.40;;
757;SDS011;363;48.764;9.172;2023-02-28T03:01:38;5.85;;;4.13;;
757;SDS011;363;48.764;9.172;2023-02-28T03:04:07;3.80;;;3.30;;
757;SDS011;363;48.764;9.172;2023-02-28T03:06:35;5.70;;;4.30;;
757;SDS011;363;48.764;9.172;2023-02-28T03:09:01;4.20;;;3.80;;
757;SDS011;363;48.764;9.172;2023-02-28T03:11:27;5.63;;;4.30;;
757;SDS011;363;48.764;9.172;2023-02-28T03:22:01;6.25;;;4.50;;
757;SDS011;363;48.764;9.172;2023-02-28T03:24:40;4.95;;;4.45;;
757;SDS011;363;48.764;9.172;2023-02-28T03:27:20;4.40;;;3.97;;
757;SDS011;363;48.764;9.172;2023-02-28T03:30:02;4.55;;;3.95;;
757;SDS011;363;48.764;9.172;2023-02-28T03:35:24;4.07;;;3.78;;
757;SDS011;363;48.764;9.172;2023-02-28T03:38:05;5.20;;;4.35;;
757;SDS011;363;48.764;9.172;2023-02-28T03:40:43;5.97;;;4.30;;
757;SDS011;363;48.764;9.172;2023-02-28T03:43:14;4.75;;;4.32;;
757;SDS011;363;48.764;9.172;2023-02-28T03:45:47;5.50;;;4.22;;
757;SDS011;363;48.764;9.172;2023-02-28T03:48:18;5.10;;;4.60;;
757;SDS011;363;48.764;9.172;2023-02-28T03:50:49;6.78;;;4.88;;
757;SDS011;363;48.764;9.172;2023-02-28T03:53:25;4.80;;;4.22;;
757;SDS011;363;48.764;9.172;2023-02-28T03:55:54;4.45;;;4.05;;
757;SDS011;363;48.764;9.172;2023-02-28T03:58:27;4.75;;;4.25;;
757;SDS011;363;48.764;9.172;2023-02-28T04:01:10;4.82;;;4.32;;
757;SDS011;363;48.764;9.172;2023-02-28T04:03:44;5.10;;;3.75;;
757;SDS011;363;48.764;9.172;2023-02-28T04:06:14;5.67;;;4.23;;
757;SDS011;363;48.764;9.172;2023-02-28T04:08:41;6.20;;;4.80;;
757;SDS011;363;48.764;9.172;2023-02-28T04:11:18;7.07;;;5.33;;
757;SDS011;363;48.764;9.172;2023-02-28T04:13:53;7.60;;;4.68;;
757;SDS011;363;48.764;9.172;2023-02-28T04:16:18;4.90;;;4.40;;
757;SDS011;363;48.764;9.172;2023-02-28T04:18:44;5.43;;;4.93;;
757;SDS011;363;48.764;9.172;2023-02-28T04:21:10;5.07;;;4.60;;
757;SDS011;363;48.764;9.172;2023-02-28T04:23:36;5.80;;;4.45;;
757;SDS011;363;48.764;9.172;2023-02-28T04:26:01;5.20;;;4.63;;
757;SDS011;363;48.764;9.172;2023-02-28T04:28:27;5.10;;;4.30;;
757;SDS011;363;48.764;9.172;2023-02-28T04:30:57;4.53;;;4.13;;
757;SDS011;363;48.764;9.172;2023-02-28T04:33:24;4.80;;;4.20;;
757;SDS011;363;48.764;9.172;2023-02-28T04:36:08;6.57;;;4.67;;
757;SDS011;363;48.764;9.172;2023-02-28T04:38:35;4.88;;;4.38;;
757;SDS011;363;48.764;9.172;2023-02-28T04:41:02;5.22;;;4.72;;
757;SDS011;363;48.764;9.172;2023-02-28T04:43:28;5.13;;;4.63;;
757;SDS011;363;48.764;9.172;2023-02-28T04:45:54;5.18;;;4.68;;
757;SDS011;363;48.764;9.172;2023-02-28T04:48:24;5.05;;;4.32;;
757;SDS011;363;48.764;9.172;2023-02-28T04:50:52;5.75;;;4.63;;
757;SDS011;363;48.764;9.172;2023-02-28T04:53:17;6.17;;;4.30;;
757;SDS011;363;48.764;9.172;2023-02-28T04:55:44;7.35;;;4.88;;
757;SDS011;363;48.764;9.172;2023-02-28T04:58:10;5.55;;;4.80;;
757;SDS011;363;48.764;9.172;2023-02-28T05:00:35;5.10;;;4.60;;
757;SDS011;363;48.764;9.172;2023-02-28T05:03:01;6.17;;;5.57;;
757;SDS011;363;48.764;9.172;2023-02-28T05:05:27;4.83;;;4.33;;
757;SDS011;363;48.764;9.172;2023-02-28T05:07:53;5.93;;;5.20;;
757;SDS011;363;48.764;9.172;2023-02-28T05:10:20;5.28;;;4.78;;
757;SDS011;363;48.764;9.172;2023-02-28T05:12:47;6.70;;;4.60;;
757;SDS011;363;48.764;9.172;2023-02-28T05:15:13;4.95;;;4.50;;
757;SDS011;363;48.764;9.172;2023-02-28T05:17:40;5.10;;;4.55;;
757;SDS011;363;48.764;9.172;2023-02-28T05:20:07;6.05;;;4.57;;
757;SDS011;363;48.764;9.172;2023-02-28T05:22:36;6.75;;;4.55;;
757;SDS011;363;48.764;9.172;2023-02-28T05:25:03;6.32;;;5.53;;
757;SDS011;363;48.764;9.172;2023-02-28T05:27:29;5.43;;;4.40;;
757;SDS011;363;48.764;9.172;2023-02-28T05:29:55;6.00;;;5.23;;
757;SDS011;363;48.764;9.172;2023-02-28T05:32:21;6.17;;;5.13;;
757;SDS011;363;48.764;9.172;2023-02-28T05:34:47;6.78;;;5.18;;
757;SDS011;363;48.764;9.172;2023-02-28T05:37:13;6.27;;;5.00;;
757;SDS011;363;48.764;9.172;2023-02-28T05:39:40;7.68;;;5.82;;
757;SDS011;363;48.764;9.172;2023-02-28T05:42:06;9.48;;;5.60;;
757;SDS011;363;48.764;9.172;2023-02-28T05:44:33;5.53;;;4.87;;
757;SDS011;363;48.764;9.172;2023-02-28T05:46:59;5.90;;;5.22;;
757;SDS011;363;48.764;9.172;2023-02-28T05:49:24;5.17;;;4.67;;
757;SDS011;363;48.764;9.172;2023-02-28T05:51:50;7.50;;;5.60;;
757;SDS011;363;48.764;9.172;2023-02-28T05:54:15;5.67;;;4.60;;
757;SDS011;363;48.764;9.172;2023-02-28T05:56:41;6.23;;;5.40;;
757;SDS011;363;48.764;9.172;2023-02-28T05:59:10;5.15;;;4.60;;
757;SDS011;363;48.764;9.172;2023-02-28T06:01:40;6.85;;;6.15;;
757;SDS011;363;48.764;9.172;2023-02-28T06:04:12;7.13;;;5.47;;
757;SDS011;363;48.764;9.172;2023-02-28T06:06:43;6.65;;;5.30;;
757;SDS011;363;48.764;9.172;2023-02-28T06:09:09;7.72;;;5.20;;
757;SDS011;363;48.764;9.172;2023-02-28T06:11:35;8.70;;;5.90;;
757;SDS011;363;48.764;9.172;2023-02-28T06:14:01;5.73;;;5.03;;
757;SDS011;363;48.764;9.172;2023-02-28T06:16:28;6.97;;;6.03;;
757;SDS011;363;48.764;9.172;2023-02-28T06:18:56;6.60;;;5.47;;
757;SDS011;363;48.764;9.172;2023-02-28T06:21:22;6.75;;;5.55;;
757;SDS011;363;48.764;9.172;2023-02-28T06:23:49;7.10;;;5.57;;
757;SDS011;363;48.764;9.172;2023-02-28T06:26:15;7.45;;;6.45;;
757;SDS011;363;48.764;9.172;2023-02-28T06:28:41;7.40;;;5.83;;
757;SDS011;363;48.764;9.172;2023-02-28T06:31:07;8.47;;;6.00;;
757;SDS011;363;48.764;9.172;2023-02-28T06:33:38;6.38;;;5.45;;
757;SDS011;363;48.764;9.172;2023-02-28T06:36:04;8.05;;;5.65;;
757;SDS011;363;48.764;9.172;2023-02-28T06:38:31;9.02;;;6.28;;
757;SDS011;363;48.764;9.172;2023-02-28T06:40:57;6.10;;;5.47;;
757;SDS011;363;48.764;9.172;2023-02-28T06:43:27;7.63;;;5.55;;
757;SDS011;363;48.764;9.172;2023-02-28T06:45:54;7.05;;;5.88;;
757;SDS011;363;48.764;9.172;2023-02-28T06:48:21;7.63;;;5.80;;
757;SDS011;363;48.764;9.172;2023-02-28T06:50:47;8.70;;;6.47;;
757;SDS011;363;48.764;9.172;2023-02-28T06:53:12;5.87;;;4.83;;
757;SDS011;363;48.764;9.172;2023-02-28T06:55:38;8.20;;;5.80;;
757;SDS011;363;48.764;9.172;2023-02-28T06:58:04;7.00;;;5.47;;
757;SDS011;363;48.764;9.172;2023-02-28T07:00:40;7.07;;;6.10;;
757;SDS011;363;48.764;9.172;2023-02-28T07:03:07;6.22;;;5.68;;
757;SDS011;363;48.764;9.172;2023-02-28T07:05:34;7.63;;;6.27;;
757;SDS011;363;48.764;9.172;2023-02-28T07:08:00;7.70;;;6.22;;
757;SDS011;363;48.764;9.172;2023-02-28T07:10:26;9.70;;;6.15;;
757;SDS011;363;48.764;9.172;2023-02-28T07:12:52;7.57;;;5.77;;
757;SDS011;363;48.764;9.172;2023-02-28T07:15:17;8.40;;;6.70;;
757;SDS011;363;48.764;9.172;2023-02-28T07:17:43;6.93;;;6.23;;
757;SDS011;363;48.764;9.172;2023-02-28T07:20:09;6.87;;;5.40;;
757;SDS011;363;48.764;9.172;2023-02-28T07:22:35;6.35;;;5.70;;
757;SDS011;363;48.764;9.172;2023-02-28T07:25:00;6.80;;;6.10;;
757;SDS011;363;48.764;9.172;2023-02-28T07:27:26;9.57;;;6.30;;
757;SDS011;363;48.764;9.172;2023-02-28T07:29:52;9.43;;;6.57;;
757;SDS011;363;48.764;9.172;2023-02-28T07:32:18;10.20;;;7.38;;
757;SDS011;363;48.764;9.172;2023-02-28T07:34:44;7.85;;;6.32;;
757;SDS011;363;48.764;9.172;2023-02-28T07:37:10;6.53;;;5.78;;
757;SDS011;363;48.764;9.172;2023-02-28T07:39:36;7.30;;;6.20;;
757;SDS011;363;48.764;9.172;2023-02-28T07:42:05;6.83;;;5.90;;
757;SDS011;363;48.764;9.172;2023-02-28T07:44:34;7.30;;;5.82;;
757;SDS011;363;48.764;9.172;2023-02-28T07:47:00;8.90;;;7.18;;
757;SDS011;363;48.764;9.172;2023-02-28T07:49:26;8.83;;;7.23;;
757;SDS011;363;48.764;9.172;2023-02-28T07:51:51;8.17;;;6.50;;
757;SDS011;363;48.764;9.172;2023-02-28T07:54:17;9.73;;;7.50;;
757;SDS011;363;48.764;9.172;2023-02-28T07:56:42;7.60;;;6.33;;
757;SDS011;363;48.764;9.172;2023-02-28T07:59:08;9.40;;;6.80;;
757;SDS011;363;48.764;9.172;2023-02-28T08:01:34;10.07;;;7.27;;
757;SDS011;363;48.764;9.172;2023-02-28T08:04:00;9.20;;;7.30;;
757;SDS011;363;48.764;9.172;2023-02-28T08:06:25;7.33;;;6.60;;
757;SDS011;363;48.764;9.172;2023-02-28T08:08:52;6.80;;;6.10;;
757;SDS011;363;48.764;9.172;2023-02-28T08:11:18;8.15;;;6.55;;
757;SDS011;363;48.764;9.172;2023-02-28T08:13:44;7.30;;;6.20;;
757;SDS011;363;48.764;9.172;2023-02-28T08:16:11;10.68;;;7.60;;
757;SDS011;363;48.764;9.172;2023-02-28T08:18:42;6.82;;;6.13;;
757;SDS011;363;48.764;9.172;2023-02-28T08:21:08;9.30;;;6.77;;
757;SDS011;363;48.764;9.172;2023-02-28T08:23:34;7.80;;;6.80;;
757;SDS011;363;48.764;9.172;2023-02-28T08:26:00;9.20;;;6.72;;
757;SDS011;363;48.764;9.172;2023-02-28T08:28:26;8.37;;;7.10;;
757;SDS011;363;48.764;9.172;2023-02-28T08:30:51;9.47;;;7.23;;
757;SDS011;363;48.764;9.172;2023-02-28T08:33:17;8.23;;;6.90;;
757;SDS011;363;48.764;9.172;2023-02-28T08:35:42;10.53;;;7.07;;
757;SDS011;363;48.764;9.172;2023-02-28T08:38:08;9.47;;;7.37;;
757;SDS011;363;48.764;9.172;2023-02-28T08:40:34;8.37;;;7.43;;
757;SDS011;363;48.764;9.172;2023-02-28T08:42:59;7.77;;;6.93;;
757;SDS011;363;48.764;9.172;2023-02-28T08:45:25;10.30;;;7.77;;
757;SDS011;363;48.764;9.172;2023-02-28T08:47:51;10.43;;;6.93;;
757;SDS011;363;48.764;9.172;2023-02-28T08:50:17;9.25;;;7.60;;
757;SDS011;363;48.764;9.172;2023-02-28T08:52:43;8.13;;;7.30;;
757;SDS011;363;48.764;9.172;2023-02-28T08:55:09;10.10;;;7.15;;
757;SDS011;363;48.764;9.172;2023-02-28T08:57:35;8.55;;;7.65;;
757;SDS011;363;48.764;9.172;2023-02-28T09:00:01;9.33;;;6.90;;
757;SDS011;363;48.764;9.172;2023-02-28T09:02:29;8.00;;;7.20;;
757;SDS011;363;48.764;9.172;2023-02-28T09:04:56;10.90;;;8.02;;
757;SDS011;363;48.764;9.172;2023-02-28T09:07:23;8.63;;;7.32;;
757;SDS011;363;48.764;9.172;2023-02-28T09:09:48;9.55;;;7.03;;
757;SDS011;363;48.764;9.172;2023-02-28T09:12:21;8.32;;;7.13;;
757;SDS011;363;48.764;9.172;2023-02-28T09:14:51;9.35;;;7.20;;
757;SDS011;363;48.764;9.172;2023-02-28T09:17:17;8.77;;;7.88;;
757;SDS011;363;48.764;9.172;2023-02-28T09:19:43;8.65;;;7.68;;
757;SDS011;363;48.764;9.172;2023-02-28T09:22:10;10.73;;;7.90;;
757;SDS011;363;48.764;9.172;2023-02-28T09:24:36;8.40;;;7.28;;
757;SDS011;363;48.764;9.172;2023-02-28T09:27:02;8.45;;;7.43;;
757;SDS011;363;48.764;9.172;2023-02-28T09:29:28;7.95;;;7.15;;
757;SDS011;363;48.764;9.172;2023-02-28T09:31:54;8.45;;;7.53;;
757;SDS011;363;48.764;9.172;2023-02-28T09:34:21;12.45;;;7.72;;
757;SDS011;363;48.764;9.172;2023-02-28T09:36:47;9.70;;;7.33;;
757;SDS011;363;48.764;9.172;2023-02-28T09:39:13;11.50;;;8.90;;
757;SDS011;363;48.764;9.172;2023-02-28T09:41:44;9.73;;;7.90;;
757;SDS011;363;48.764;9.172;2023-02-28T09:44:20;15.60;;;9.30;;
757;SDS011;363;48.764;9.172;2023-02-28T09:46:55;8.18;;;6.55;;
757;SDS011;363;48.764;9.172;2023-02-28T09:49:25;10.55;;;7.68;;
757;SDS011;363;48.764;9.172;2023-02-28T09:52:05;9.57;;;7.47;;
757;SDS011;363;48.764;9.172;2023-02-28T09:54:51;8.95;;;7.30;;
757;SDS011;363;48.764;9.172;2023-02-28T09:57:29;8.30;;;7.15;;
757;SDS011;363;48.764;9.172;2023-02-28T10:06:05;12.50;;;8.10;;
757;SDS011;363;48.764;9.172;2023-02-28T10:08:37;8.90;;;7.78;;
757;SDS011;363;48.764;9.172;2023-02-28T10:11:32;11.30;;;8.65;;
757;SDS011;363;48.764;9.172;2023-02-28T10:14:18;10.57;;;8.00;;
757;SDS011;363;48.764;9.172;2023-02-28T10:16:59;9.30;;;8.10;;
757;SDS011;363;48.764;9.172;2023-02-28T10:19:38;9.63;;;8.52;;
757;SDS011;363;48.764;9.172;2023-02-28T10:22:15;11.52;;;9.10;;
757;SDS011;363;48.764;9.172;2023-02-28T10:24:44;8.90;;;7.85;;
757;SDS011;363;48.764;9.172;2023-02-28T10:27:18;7.78;;;6.88;;
757;SDS011;363;48.764;9.172;2023-02-28T10:29:45;9.73;;;7.78;;
757;SDS011;363;48.764;9.172;2023-02-28T10:32:15;12.00;;;8.48;;
757;SDS011;363;48.764;9.172;2023-02-28T10:34:44;10.95;;;8.50;;
757;SDS011;363;48.764;9.172;2023-02-28T10:37:11;8.90;;;8.00;;
757;SDS011;363;48.764;9.172;2023-02-28T10:39:42;11.35;;;9.30;;
757;SDS011;363;48.764;9.172;2023-02-28T10:44:57;8.52;;;7.63;;
757;SDS011;363;48.764;9.172;2023-02-28T10:47:40;12.30;;;8.50;;
757;SDS011;363;48.764;9.172;2023-02-28T10:50:33;8.20;;;7.30;;
757;SDS011;363;48.764;9.172;2023-02-28T10:55:56;10.07;;;8.93;;
757;SDS011;363;48.764;9.172;2023-02-28T11:04:39;10.25;;;8.18;;
757;SDS011;363;48.764;9.172;2023-02-28T11:07:02;9.40;;;8.35;;
757;SDS011;363;48.764;9.172;2023-02-28T11:09:49;10.43;;;8.95;;
757;SDS011;363;48.764;9.172;2023-02-28T11:14:49;9.68;;;8.38;;
757;SDS011;363;48.764;9.172;2023-02-28T11:17:24;8.85;;;7.95;;
757;SDS011;363;48.764;9.172;2023-02-28T11:19:57;10.35;;;9.02;;
757;SDS011;363;48.764;9.172;2023-02-28T11:22:27;10.80;;;9.13;;
757;SDS011;363;48.764;9.172;2023-02-28T11:24:56;8.85;;;7.82;;
757;SDS011;363;48.764;9.172;2023-02-28T11:29:59;8.65;;;7.70;;
757;SDS011;363;48.764;9.172;2023-02-28T11:32:25;9.32;;;7.93;;
757;SDS011;363;48.764;9.172;2023-02-28T11:37:36;9.20;;;7.00;;
757;SDS011;363;48.764;9.172;2023-02-28T11:40:16;8.70;;;7.90;;
757;SDS011;363;48.764;9.172;2023-02-28T11:48:38;9.13;;;8.13;;
757;SDS011;363;48.764;9.172;2023-02-28T12:01:52;9.45;;;8.45;;
757;SDS011;363;48.764;9.172;2023-02-28T12:04:33;8.40;;;7.60;;
757;SDS011;363;48.764;9.172;2023-02-28T12:10:30;10.57;;;8.75;;
757;SDS011;363;48.764;9.172;2023-02-28T12:19:13;9.70;;;8.23;;
757;SDS011;363;48.764;9.172;2023-02-28T12:26:59;9.43;;;8.35;;
757;SDS011;363;48.764;9.172;2023-02-28T12:31:56;8.95;;;8.13;;
757;SDS011;363;48.764;9.172;2023-02-28T12:34:32;8.68;;;7.47;;
757;SDS011;363;48.764;9.172;2023-02-28T12:37:04;9.77;;;8.23;;
757;SDS011;363;48.764;9.172;2023-02-28T12:39:35;9.68;;;7.90;;
757;SDS011;363;48.764;9.172;2023-02-28T12:42:05;11.95;;;9.10;;
757;SDS011;363;48.764;9.172;2023-02-28T12:44:57;9.85;;;8.75;;
757;SDS011;363;48.764;9.172;2023-02-28T12:47:26;10.15;;;8.85;;
757;SDS011;363;48.764;9.172;2023-02-28T12:49:58;9.23;;;8.10;;
757;SDS011;363;48.764;9.172;2023-02-28T12:52:32;12.73;;;7.70;;
757;SDS011;363;48.764;9.172;2023-02-28T12:58:10;10.98;;;8.70;;
757;SDS011;363;48.764;9.172;2023-02-28T13:01:05;8.70;;;7.90;;
757;SDS011;363;48.764;9.172;2023-02-28T13:03:51;9.13;;;8.32;;
757;SDS011;363;48.764;9.172;2023-02-28T13:09:25;9.35;;;8.45;;
757;SDS011;363;48.764;9.172;2023-02-28T13:11:51;9.75;;;8.60;;
757;SDS011;363;48.764;9.172;2023-02-28T13:14:23;10.45;;;8.88;;
757;SDS011;363;48.764;9.172;2023-02-28T13:22:05;9.45;;;8.40;;
757;SDS011;363;48.764;9.172;2023-02-28T13:27:48;10.73;;;8.40;;
757;SDS011;363;48.764;9.172;2023-02-28T13:38:51;9.57;;;8.57;;
757;SDS011;363;48.764;9.172;2023-02-28T13:44:09;8.85;;;7.90;;
757;SDS011;363;48.764;9.172;2023-02-28T13:51:50;8.45;;;7.35;;
757;SDS011;363;48.764;9.172;2023-02-28T13:57:31;9.68;;;8.68;;
757;SDS011;363;48.764;9.172;2023-02-28T14:08:54;8.70;;;7.45;;
757;SDS011;363;48.764;9.172;2023-02-28T14:11:25;9.02;;;8.15;;
757;SDS011;363;48.764;9.172;2023-02-28T14:13:59;9.70;;;7.35;;
757;SDS011;363;48.764;9.172;2023-02-28T14:16:27;8.90;;;7.70;;
757;SDS011;363;48.764;9.172;2023-02-28T14:19:10;8.70;;;7.90;;
757;SDS011;363;48.764;9.172;2023-02-28T14:21:37;8.75;;;7.88;;
757;SDS011;363;48.764;9.172;2023-02-28T14:37:48;9.35;;;7.60;;
757;SDS011;363;48.764;9.172;2023-02-28T14:40:19;15.00;;;8.93;;
757;SDS011;363;48.764;9.172;2023-02-28T14:43:00;9.93;;;7.97;;
757;SDS011;363;48.764;9.172;2023-02-28T14:45:28;9.40;;;7.43;;
757;SDS011;363;48.764;9.172;2023-02-28T14:47:56;9.98;;;8.50;;
757;SDS011;363;48.764;9.172;2023-02-28T14:50:29;8.63;;;7.35;;
757;SDS011;363;48.764;9.172;2023-02-28T14:52:58;8.50;;;7.43;;
757;SDS011;363;48.764;9.172;2023-02-28T14:55:26;7.93;;;7.10;;
757;SDS011;363;48.764;9.172;2023-02-28T14:57:56;11.70;;;8.00;;
757;SDS011;363;48.764;9.172;2023-02-28T15:00:24;8.32;;;7.32;;
757;SDS011;363;48.764;9.172;2023-02-28T15:02:50;11.50;;;8.63;;
757;SDS011;363;48.764;9.172;2023-02-28T15:05:30;9.20;;;7.45;;
757;SDS011;363;48.764;9.172;2023-02-28T15:08:05;8.60;;;7.43;;
757;SDS011;363;48.764;9.172;2023-02-28T15:10:39;9.48;;;6.93;;
757;SDS011;363;48.764;9.172;2023-02-28T15:13:15;7.80;;;7.00;;
757;SDS011;363;48.764;9.172;2023-02-28T15:15:57;8.45;;;7.47;;
757;SDS011;363;48.764;9.172;2023-02-28T15:21:56;9.20;;;7.35;;
757;SDS011;363;48.764;9.172;2023-02-28T15:24:16;8.90;;;7.20;;
757;SDS011;363;48.764;9.172;2023-02-28T15:26:55;7.95;;;7.15;;
757;SDS011;363;48.764;9.172;2023-02-28T15:29:24;8.68;;;7.65;;
757;SDS011;363;48.764;9.172;2023-02-28T15:31:56;9.88;;;8.05;;
757;SDS011;363;48.764;9.172;2023-02-28T15:34:36;10.75;;;8.82;;
757;SDS011;363;48.764;9.172;2023-02-28T15:37:47;11.43;;;7.40;;
757;SDS011;363;48.764;9.172;2023-02-28T15:43:03;9.68;;;8.07;;
757;SDS011;363;48.764;9.172;2023-02-28T15:48:14;9.95;;;8.10;;
757;SDS011;363;48.764;9.172;2023-02-28T15:50:43;13.43;;;8.95;;
757;SDS011;363;48.764;9.172;2023-02-28T15:53:12;9.43;;;7.72;;
757;SDS011;363;48.764;9.172;2023-02-28T15:55:40;8.52;;;7.55;;
757;SDS011;363;48.764;9.172;2023-02-28T15:58:08;8.63;;;7.73;;
757;SDS011;363;48.764;9.172;2023-02-28T16:00:38;10.68;;;8.50;;
757;SDS011;363;48.764;9.172;2023-02-28T16:03:22;9.82;;;7.55;;
757;SDS011;363;48.764;9.172;2023-02-28T16:06:17;9.30;;;8.30;;
757;SDS011;363;48.764;9.172;2023-02-28T16:08:47;10.70;;;7.82;;
757;SDS011;363;48.764;9.172;2023-02-28T16:11:13;10.07;;;8.57;;
757;SDS011;363;48.764;9.172;2023-02-28T16:13:40;13.93;;;8.20;;
757;SDS011;363;48.764;9.172;2023-02-28T16:16:05;8.67;;;7.77;;
757;SDS011;363;48.764;9.172;2023-02-28T16:18:31;9.57;;;8.40;;
757;SDS011;363;48.764;9.172;2023-02-28T16:20:57;9.03;;;8.20;;
757;SDS011;363;48.764;9.172;2023-02-28T16:23:22;9.03;;;8.13;;
757;SDS011;363;48.764;9.172;2023-02-28T16:25:48;11.73;;;7.57;;
757;SDS011;363;48.764;9.172;2023-02-28T16:28:24;10.57;;;9.48;;
757;SDS011;363;48.764;9.172;2023-02-28T16:30:56;12.23;;;10.30;;
757;SDS011;363;48.764;9.172;2023-02-28T16:33:21;10.40;;;9.27;;
757;SDS011;363;48.764;9.172;2023-02-28T16:35:48;8.53;;;7.73;;
757;SDS011;363;48.764;9.172;2023-02-28T16:38:14;9.88;;;7.72;;
757;SDS011;363;48.764;9.172;2023-02-28T16:40:40;10.97;;;8.97;;
757;SDS011;363;48.764;9.172;2023-02-28T16:43:24;11.20;;;8.70;;
757;SDS011;363;48.764;9.172;2023-02-28T16:45:55;10.50;;;9.27;;
757;SDS011;363;48.764;9.172;2023-02-28T16:48:23;9.15;;;8.20;;
757;SDS011;363;48.764;9.172;2023-02-28T16:50:50;10.18;;;8.73;;
757;SDS011;363;48.764;9.172;2023-02-28T16:53:16;9.55;;;8.40;;
757;SDS011;363;48.764;9.172;2023-02-28T16:55:42;8.97;;;8.07;;
757;SDS011;363;48.764;9.172;2023-02-28T16:58:10;9.68;;;8.55;;
757;SDS011;363;48.764;9.172;2023-02-28T17:00:40;10.80;;;8.95;;
757;SDS011;363;48.764;9.172;2023-02-28T17:03:23;11.70;;;9.30;;
757;SDS011;363;48.764;9.172;2023-02-28T17:05:50;10.95;;;8.50;;
757;SDS011;363;48.764;9.172;2023-02-28T17:08:16;10.10;;;9.03;;
757;SDS011;363;48.764;9.172;2023-02-28T17:10:42;11.10;;;8.93;;
757;SDS011;363;48.764;9.172;2023-02-28T17:13:08;10.60;;;9.23;;
757;SDS011;363;48.764;9.172;2023-02-28T17:15:34;9.67;;;8.47;;
757;SDS011;363;48.764;9.172;2023-02-28T17:18:01;10.75;;;9.65;;
757;SDS011;363;48.764;9.172;2023-02-28T17:20:27;11.57;;;8.68;;
757;SDS011;363;48.764;9.172;2023-02-28T17:22:53;10.30;;;8.50;;
757;SDS011;363;48.764;9.172;2023-02-28T17:25:20;12.85;;;9.40;;
757;SDS011;363;48.764;9.172;2023-02-28T17:27:46;11.50;;;9.80;;
757;SDS011;363;48.764;9.172;2023-02-28T17:32:45;10.95;;;8.57;;
757;SDS011;363;48.764;9.172;2023-02-28T17:35:11;11.17;;;9.00;;
757;SDS011;363;48.764;9.172;2023-02-28T17:37:37;12.43;;;9.93;;
757;SDS011;363;48.764;9.172;2023-02-28T17:40:03;12.60;;;10.53;;
757;SDS011;363;48.764;9.172;2023-02-28T17:42:30;15.52;;;10.07;;
757;SDS011;363;48.764;9.172;2023-02-28T17:44:55;11.60;;;10.23;;
757;SDS011;363;48.764;9.172;2023-02-28T17:47:21;14.30;;;9.63;;
757;SDS011;363;48.764;9.172;2023-02-28T17:49:47;11.67;;;9.00;;
757;SDS011;363;48.764;9.172;2023-02-28T17:52:12;13.70;;;9.43;;
757;SDS011;363;48.764;9.172;2023-02-28T17:54:38;14.83;;;10.07;;
757;SDS011;363;48.764;9.172;2023-02-28T17:57:04;11.60;;;9.13;;
757;SDS011;363;48.764;9.172;2023-02-28T17:59:29;12.00;;;10.80;;
757;SDS011;363;48.764;9.172;2023-02-28T18:02:00;14.40;;;10.68;;
757;SDS011;363;48.764;9.172;2023-02-28T18:04:26;15.73;;;11.05;;
757;SDS011;363;48.764;9.172;2023-02-28T18:06:52;14.27;;;10.97;;
757;SDS011;363;48.764;9.172;2023-02-28T18:09:22;14.50;;;10.70;;
757;SDS011;363;48.764;9.172;2023-02-28T18:11:48;12.90;;;10.15;;
757;SDS011;363;48.764;9.172;2023-02-28T18:14:16;15.15;;;10.85;;
757;SDS011;363;48.764;9.172;2023-02-28T18:16:43;11.52;;;10.05;;
757;SDS011;363;48.764;9.172;2023-02-28T18:19:09;13.23;;;11.38;;
757;SDS011;363;48.764;9.172;2023-02-28T18:21:44;14.85;;;10.98;;
757;SDS011;363;48.764;9.172;2023-02-28T18:24:15;13.00;;;11.23;;
757;SDS011;363;48.764;9.172;2023-02-28T18:26:42;12.30;;;10.63;;
757;SDS011;363;48.764;9.172;2023-02-28T18:29:09;14.25;;;11.10;;
757;SDS011;363;48.764;9.172;2023-02-28T18:31:50;13.38;;;9.80;;
757;SDS011;363;48.764;9.172;2023-02-28T18:34:16;14.05;;;11.27;;
757;SDS011;363;48.764;9.172;2023-02-28T18:36:42;13.63;;;11.00;;
757;SDS011;363;48.764;9.172;2023-02-28T18:39:11;15.00;;;11.85;;